createdAt,value
2018-12-13T00:01:48.017Z,101028.00
2018-12-13T00:04:16.368Z,101020.00
2018-12-13T00:06:44.612Z,101027.00
2018-12-13T00:09:13.062Z,101013.00
2018-12-13T00:11:41.463Z,101011.00
2018-12-13T00:14:09.571Z,101007.00
2018-12-13T00:16:37.655Z,100995.00
2018-12-13T00:19:06.233Z,100999.00
2018-12-13T00:21:34.430Z,101000.00
2018-12-13T00:24:02.654Z,100993.00
2018-12-13T00:26:30.752Z,100993.00
2018-12-13T00:28:58.902Z,100993.00
2018-12-13T00:31:27.101Z,100996.00
2018-12-13T00:33:55.606Z,100990.00
2018-12-13T00:36:23.716Z,100991.00
2018-12-13T00:38:51.903Z,100991.00
2018-12-13T00:41:20.024Z,100982.00
2018-12-13T00:43:48.181Z,100992.00
2018-12-13T00:46:16.486Z,100985.00
2018-12-13T00:48:44.556Z,100985.00
2018-12-13T00:51:12.608Z,100987.00
2018-12-13T00:53:40.746Z,100984.00
2018-12-13T00:56:08.838Z,100975.00
2018-12-13T00:58:37.011Z,100975.00
2018-12-13T01:01:05.179Z,100971.00
2018-12-13T01:03:33.369Z,100970.00
2018-12-13T01:06:01.485Z,100976.00
2018-12-13T01:08:29.621Z,100973.00
2018-12-13T01:10:57.670Z,100973.00
2018-12-13T01:13:25.770Z,100966.00
2018-12-13T01:15:53.805Z,100968.00
2018-12-13T01:18:21.789Z,100971.00
2018-12-13T01:20:49.774Z,100973.00
2018-12-13T01:23:17.842Z,100974.00
2018-12-13T01:25:45.897Z,100974.00
2018-12-13T01:28:13.983Z,100974.00
2018-12-13T01:30:41.982Z,100970.00
2018-12-13T01:33:10.120Z,100976.00
2018-12-13T01:35:38.139Z,100969.00
2018-12-13T01:38:06.163Z,100979.00
2018-12-13T01:40:34.246Z,100965.00
2018-12-13T01:43:02.258Z,100965.00
2018-12-13T01:45:30.284Z,100962.00
2018-12-13T01:47:58.305Z,100952.00
2018-12-13T01:50:26.292Z,100957.00
2018-12-13T01:52:54.318Z,100955.00
2018-12-13T01:55:22.319Z,100964.00
2018-12-13T01:57:50.341Z,100957.00
2018-12-13T02:00:18.495Z,100960.00
2018-12-13T02:02:46.608Z,100958.00
2018-12-13T02:05:14.813Z,100950.00
2018-12-13T02:07:42.939Z,100951.00
2018-12-13T02:10:10.945Z,100959.00
2018-12-13T02:12:38.961Z,100958.00
2018-12-13T02:15:07.348Z,100957.00
2018-12-13T02:17:35.402Z,100949.00
2018-12-13T02:20:03.959Z,100939.00
2018-12-13T02:22:33.192Z,100942.00
2018-12-13T02:25:01.266Z,100943.00
2018-12-13T02:27:29.318Z,100939.00
2018-12-13T02:29:57.366Z,100935.00
2018-12-13T02:32:25.374Z,100937.00
2018-12-13T02:34:53.475Z,100939.00
2018-12-13T02:37:21.708Z,100938.00
2018-12-13T02:39:49.839Z,100936.00
2018-12-13T02:42:17.984Z,100934.00
2018-12-13T02:44:46.106Z,100939.00
2018-12-13T02:47:14.111Z,100938.00
2018-12-13T02:49:42.264Z,100933.00
2018-12-13T02:52:10.288Z,100936.00
2018-12-13T02:54:38.328Z,100933.00
2018-12-13T02:57:06.339Z,100936.00
2018-12-13T02:59:34.341Z,100928.00
2018-12-13T03:02:02.412Z,100942.00
2018-12-13T03:04:30.434Z,100930.00
2018-12-13T03:06:58.434Z,100932.00
2018-12-13T03:09:26.450Z,100925.00
2018-12-13T03:11:54.644Z,100923.00
2018-12-13T03:14:22.703Z,100923.00
2018-12-13T03:16:50.865Z,100918.00
2018-12-13T03:19:18.854Z,100916.00
2018-12-13T03:21:47.485Z,100909.00
2018-12-13T03:24:15.544Z,100904.00
2018-12-13T03:26:43.579Z,100895.00
2018-12-13T03:29:11.636Z,100899.00
2018-12-13T03:31:39.629Z,100886.00
2018-12-13T03:34:07.778Z,100890.00
2018-12-13T03:36:35.762Z,100889.00
2018-12-13T03:39:07.105Z,100888.00
2018-12-13T03:41:35.176Z,100892.00
2018-12-13T03:44:04.106Z,100883.00
2018-12-13T03:46:32.229Z,100884.00
2018-12-13T03:49:00.307Z,100878.00
2018-12-13T03:51:28.331Z,100877.00
2018-12-13T03:53:56.410Z,100881.00
2018-12-13T03:56:24.495Z,100873.00
2018-12-13T03:58:52.543Z,100867.00
2018-12-13T04:01:20.656Z,100867.00
2018-12-13T04:03:48.708Z,100862.00
2018-12-13T04:06:16.697Z,100860.00
2018-12-13T04:08:44.727Z,100852.00
2018-12-13T04:11:12.810Z,100853.00
2018-12-13T04:13:40.921Z,100856.00
2018-12-13T04:16:08.925Z,100847.00
2018-12-13T04:18:37.067Z,100845.00
2018-12-13T04:21:05.182Z,100843.00
2018-12-13T04:23:33.196Z,100847.00
2018-12-13T04:26:01.181Z,100848.00
2018-12-13T04:28:29.281Z,100831.00
2018-12-13T04:30:57.398Z,100844.00
2018-12-13T04:33:25.474Z,100844.00
2018-12-13T04:35:53.574Z,100845.00
2018-12-13T04:38:21.632Z,100850.00
2018-12-13T04:40:49.585Z,100852.00
2018-12-13T04:43:17.687Z,100852.00
2018-12-13T04:45:45.757Z,100853.00
2018-12-13T04:48:13.795Z,100855.00
2018-12-13T04:50:42.090Z,100859.00
2018-12-13T04:53:10.075Z,100866.00
2018-12-13T04:55:38.200Z,100849.00
2018-12-13T04:58:06.215Z,100854.00
2018-12-13T05:00:34.361Z,100850.00
2018-12-13T05:03:02.439Z,100843.00
2018-12-13T05:05:30.474Z,100846.00
2018-12-13T05:07:58.481Z,100844.00
2018-12-13T05:10:43.553Z,100843.00
2018-12-13T05:13:11.600Z,100846.00
2018-12-13T05:15:39.550Z,100832.00
2018-12-13T05:18:07.516Z,100827.00
2018-12-13T05:20:35.504Z,100825.00
2018-12-13T05:23:03.557Z,100824.00
2018-12-13T05:25:31.549Z,100833.00
2018-12-13T05:27:59.541Z,100828.00
2018-12-13T05:30:27.474Z,100844.00
2018-12-13T05:32:55.453Z,100839.00
2018-12-13T05:35:23.495Z,100834.00
2018-12-13T05:37:51.541Z,100831.00
2018-12-13T05:40:19.553Z,100836.00
2018-12-13T05:42:47.510Z,100832.00
2018-12-13T05:45:15.513Z,100829.00
2018-12-13T05:47:43.466Z,100834.00
2018-12-13T05:50:11.503Z,100823.00
2018-12-13T05:52:39.706Z,100813.00
2018-12-13T05:55:08.569Z,100820.00
2018-12-13T05:57:36.788Z,100824.00
2018-12-13T06:00:06.107Z,100823.00
2018-12-13T06:02:34.337Z,100826.00
2018-12-13T06:05:02.522Z,100818.00
2018-12-13T06:07:30.568Z,100827.00
2018-12-13T06:09:58.690Z,100817.00
2018-12-13T06:12:26.716Z,100815.00
2018-12-13T06:14:54.786Z,100808.00
2018-12-13T06:17:22.774Z,100811.00
2018-12-13T06:19:50.759Z,100805.00
2018-12-13T06:22:18.843Z,100816.00
2018-12-13T06:24:46.910Z,100807.00
2018-12-13T06:27:14.910Z,100807.00
2018-12-13T06:29:48.738Z,100799.00
2018-12-13T06:32:13.155Z,100806.00
2018-12-13T06:34:41.291Z,100805.00
2018-12-13T06:37:09.379Z,100802.00
2018-12-13T06:39:37.395Z,100799.00
2018-12-13T06:42:05.474Z,100804.00
2018-12-13T06:44:33.528Z,100809.00
2018-12-13T06:47:01.669Z,100801.00
2018-12-13T06:49:29.746Z,100808.00
2018-12-13T06:51:57.793Z,100811.00
2018-12-13T06:54:25.722Z,100810.00
2018-12-13T06:56:53.775Z,100817.00
2018-12-13T06:59:21.817Z,100809.00
2018-12-13T07:01:49.943Z,100821.00
2018-12-13T07:04:18.005Z,100819.00
2018-12-13T07:06:46.650Z,100831.00
2018-12-13T07:09:14.742Z,100820.00
2018-12-13T07:11:42.892Z,100829.00
2018-12-13T07:14:10.911Z,100829.00
2018-12-13T07:16:38.960Z,100835.00
2018-12-13T07:19:06.962Z,100831.00
2018-12-13T07:21:34.994Z,100826.00
2018-12-13T07:24:03.175Z,100831.00
2018-12-13T07:26:31.466Z,100825.00
2018-12-13T07:28:59.614Z,100825.00
2018-12-13T07:31:27.612Z,100821.00
2018-12-13T07:33:55.785Z,100834.00
2018-12-13T07:36:23.839Z,100832.00
2018-12-13T07:38:51.894Z,100833.00
2018-12-13T07:41:20.010Z,100844.00
2018-12-13T07:43:48.113Z,100838.00
2018-12-13T07:46:16.354Z,100828.00
2018-12-13T07:48:44.423Z,100835.00
2018-12-13T07:51:12.630Z,100835.00
2018-12-13T07:53:40.778Z,100836.00
2018-12-13T07:56:08.948Z,100838.00
2018-12-13T07:58:37.029Z,100837.00
2018-12-13T08:01:06.036Z,100836.00
2018-12-13T08:03:34.194Z,100838.00
2018-12-13T08:06:02.346Z,100833.00
2018-12-13T08:08:30.409Z,100832.00
2018-12-13T08:10:58.398Z,100843.00
2018-12-13T08:13:26.487Z,100832.00
2018-12-13T08:15:54.602Z,100832.00
2018-12-13T08:18:22.826Z,100833.00
2018-12-13T08:20:50.942Z,100827.00
2018-12-13T08:23:19.071Z,100819.00
2018-12-13T08:25:47.147Z,100830.00
2018-12-13T08:28:15.366Z,100834.00
2018-12-13T08:30:43.521Z,100844.00
2018-12-13T08:33:11.659Z,100843.00
2018-12-13T08:35:39.785Z,100833.00
2018-12-13T08:38:07.927Z,100837.00
2018-12-13T08:40:35.945Z,100838.00
2018-12-13T08:43:04.157Z,100839.00
2018-12-13T08:45:32.424Z,100846.00
2018-12-13T08:48:00.510Z,100838.00
2018-12-13T08:50:28.595Z,100845.00
2018-12-13T08:52:56.745Z,100831.00
2018-12-13T08:55:24.962Z,100829.00
2018-12-13T08:57:53.085Z,100846.00
2018-12-13T09:00:21.188Z,100836.00
2018-12-13T09:02:49.528Z,100834.00
2018-12-13T09:05:24.460Z,100845.00
2018-12-13T09:07:52.678Z,100834.00
2018-12-13T09:10:20.748Z,100843.00
2018-12-13T09:12:48.907Z,100829.00
2018-12-13T09:15:17.141Z,100834.00
2018-12-13T09:17:45.332Z,100835.00
2018-12-13T09:20:13.738Z,100830.00
2018-12-13T09:22:41.828Z,100825.00
2018-12-13T09:25:09.907Z,100826.00
2018-12-13T09:27:38.059Z,100830.00
2018-12-13T09:30:06.953Z,100832.00
2018-12-13T09:32:35.087Z,100827.00
2018-12-13T09:35:03.791Z,100835.00
2018-12-13T09:37:31.859Z,100825.00
2018-12-13T09:39:59.913Z,100818.00
2018-12-13T09:42:28.188Z,100811.00
2018-12-13T09:44:56.742Z,100807.00
2018-12-13T09:47:24.983Z,100803.00
2018-12-13T09:49:53.081Z,100798.00
2018-12-13T09:52:21.268Z,100807.00
2018-12-13T09:54:49.390Z,100803.00
2018-12-13T09:57:17.459Z,100797.00
2018-12-13T09:59:45.566Z,100796.00
2018-12-13T10:02:13.885Z,100787.00
2018-12-13T10:04:42.006Z,100792.00
2018-12-13T10:07:10.189Z,100787.00
2018-12-13T10:09:38.337Z,100785.00
2018-12-13T10:12:06.633Z,100777.00
2018-12-13T10:14:34.798Z,100776.00
2018-12-13T10:17:02.926Z,100777.00
2018-12-13T10:19:31.101Z,100774.00
2018-12-13T10:21:59.194Z,100767.00
2018-12-13T10:24:27.287Z,100759.00
2018-12-13T10:26:55.354Z,100771.00
2018-12-13T10:29:23.699Z,100753.00
2018-12-13T10:31:51.853Z,100747.00
2018-12-13T10:34:20.080Z,100748.00
2018-12-13T10:36:48.158Z,100745.00
2018-12-13T10:39:16.708Z,100748.00
2018-12-13T10:41:44.864Z,100746.00
2018-12-13T10:44:13.027Z,100747.00
2018-12-13T10:46:41.293Z,100738.00
2018-12-13T10:49:09.297Z,100730.00
2018-12-13T10:51:37.433Z,100720.00
2018-12-13T10:54:05.546Z,100731.00
2018-12-13T10:56:33.706Z,100734.00
2018-12-13T10:59:01.782Z,100725.00
2018-12-13T11:01:35.705Z,100731.00
2018-12-13T11:04:03.960Z,100738.00
2018-12-13T11:06:32.041Z,100735.00
2018-12-13T11:09:00.173Z,100723.00
2018-12-13T11:11:28.242Z,100725.00
2018-12-13T11:13:56.410Z,100725.00
2018-12-13T11:16:24.465Z,100719.00
2018-12-13T11:18:52.555Z,100719.00
2018-12-13T11:21:20.695Z,100713.00
2018-12-13T11:23:48.750Z,100712.00
2018-12-13T11:26:17.045Z,100712.00
2018-12-13T11:30:00.663Z,100712.00
2018-12-13T11:32:28.713Z,100720.00
2018-12-13T11:34:56.807Z,100720.00
2018-12-13T11:37:24.929Z,100713.00
2018-12-13T11:39:53.012Z,100711.00
2018-12-13T11:42:21.080Z,100712.00
2018-12-13T11:44:49.234Z,100706.00
2018-12-13T11:47:17.301Z,100704.00
2018-12-13T11:49:45.456Z,100710.00
2018-12-13T11:52:13.625Z,100699.00
2018-12-13T11:54:43.446Z,100699.00
2018-12-13T11:57:11.887Z,100690.00
2018-12-13T11:59:39.930Z,100695.00
2018-12-13T12:02:07.986Z,100697.00
2018-12-13T12:04:36.015Z,100692.00
2018-12-13T12:07:04.336Z,100687.00
2018-12-13T12:09:32.541Z,100683.00
2018-12-13T12:12:00.557Z,100681.00
2018-12-13T12:14:28.593Z,100681.00
2018-12-13T12:16:56.819Z,100671.00
2018-12-13T12:19:24.894Z,100675.00
2018-12-13T12:21:52.961Z,100676.00
2018-12-13T12:24:21.098Z,100668.00
2018-12-13T12:26:49.203Z,100674.00
2018-12-13T12:29:17.238Z,100655.00
2018-12-13T12:31:45.309Z,100656.00
2018-12-13T12:34:13.307Z,100667.00
2018-12-13T12:36:41.394Z,100664.00
2018-12-13T12:39:10.456Z,100655.00
2018-12-13T12:41:38.585Z,100656.00
2018-12-13T12:44:07.025Z,100655.00
2018-12-13T12:46:35.094Z,100655.00
2018-12-13T12:49:03.174Z,100657.00
2018-12-13T12:51:31.266Z,100651.00
2018-12-13T12:53:59.422Z,100654.00
2018-12-13T12:56:27.546Z,100655.00
2018-12-13T12:58:55.677Z,100661.00
2018-12-13T13:01:23.895Z,100651.00
2018-12-13T13:03:52.003Z,100649.00
2018-12-13T13:06:20.079Z,100654.00
2018-12-13T13:08:48.291Z,100655.00
2018-12-13T13:11:16.400Z,100654.00
2018-12-13T13:13:44.495Z,100651.00
2018-12-13T13:16:12.652Z,100648.00
2018-12-13T13:18:40.764Z,100645.00
2018-12-13T13:21:08.983Z,100646.00
2018-12-13T13:23:37.137Z,100648.00
2018-12-13T13:26:05.248Z,100648.00
2018-12-13T13:28:33.329Z,100648.00
2018-12-13T13:31:01.557Z,100647.00
2018-12-13T13:33:29.663Z,100642.00
2018-12-13T13:35:57.833Z,100639.00
2018-12-13T13:38:25.965Z,100631.00
2018-12-13T13:40:53.953Z,100570.00
2018-12-13T13:43:22.062Z,100630.00
2018-12-13T13:45:50.179Z,100631.00
2018-12-13T13:48:18.364Z,100624.00
2018-12-13T13:50:46.434Z,100625.00
2018-12-13T13:53:14.545Z,100630.00
2018-12-13T13:55:42.791Z,100626.00
2018-12-13T13:58:10.949Z,100637.00
2018-12-13T14:00:39.042Z,100636.00
2018-12-13T14:03:07.249Z,100634.00
2018-12-13T14:05:35.326Z,100628.00
2018-12-13T14:08:03.521Z,100637.00
2018-12-13T14:10:31.586Z,100632.00
2018-12-13T14:12:59.701Z,100636.00
2018-12-13T14:15:27.903Z,100639.00
2018-12-13T14:17:56.005Z,100641.00
2018-12-13T14:20:24.137Z,100636.00
2018-12-13T14:22:52.578Z,100638.00
2018-12-13T14:25:20.818Z,100635.00
2018-12-13T14:27:48.926Z,100634.00
2018-12-13T14:30:17.178Z,100645.00
2018-12-13T14:32:45.258Z,100631.00
2018-12-13T14:35:13.477Z,100632.00
2018-12-13T14:37:41.642Z,100635.00
2018-12-13T14:40:09.819Z,100646.00
2018-12-13T14:42:37.867Z,100642.00
2018-12-13T14:45:06.360Z,100646.00
2018-12-13T14:47:34.478Z,100648.00
2018-12-13T14:50:02.738Z,100651.00
2018-12-13T14:52:30.918Z,100649.00
2018-12-13T14:54:59.412Z,100659.00
2018-12-13T14:57:27.519Z,100657.00
2018-12-13T14:59:55.601Z,100655.00
2018-12-13T15:02:23.802Z,100646.00
2018-12-13T15:04:52.784Z,100662.00
2018-12-13T15:07:20.942Z,100655.00
2018-12-13T15:09:50.992Z,100663.00
2018-12-13T15:12:19.148Z,100658.00
2018-12-13T15:14:47.378Z,100668.00
2018-12-13T15:17:15.503Z,100674.00
2018-12-13T15:19:43.582Z,100676.00
2018-12-13T15:22:11.723Z,100669.00
2018-12-13T15:24:39.851Z,100678.00
2018-12-13T15:27:07.970Z,100663.00
2018-12-13T15:29:36.224Z,100663.00
2018-12-13T15:32:04.484Z,100672.00
2018-12-13T15:34:32.664Z,100665.00
2018-12-13T15:37:00.713Z,100667.00
2018-12-13T15:39:28.998Z,100671.00
2018-12-13T15:41:57.095Z,100670.00
2018-12-13T15:44:25.438Z,100671.00
2018-12-13T15:46:53.755Z,100670.00
2018-12-13T15:49:22.726Z,100673.00
2018-12-13T15:51:50.834Z,100691.00
2018-12-13T15:54:18.990Z,100679.00
2018-12-13T15:56:47.172Z,100683.00
2018-12-13T15:59:15.345Z,100682.00
2018-12-13T16:01:43.578Z,100680.00
2018-12-13T16:04:11.691Z,100679.00
2018-12-13T16:06:39.872Z,100676.00
2018-12-13T16:09:08.356Z,100674.00
2018-12-13T16:11:36.799Z,100685.00
2018-12-13T16:14:04.903Z,100681.00
2018-12-13T16:16:33.016Z,100682.00
2018-12-13T16:19:01.245Z,100674.00
2018-12-13T16:21:29.394Z,100676.00
2018-12-13T16:23:57.484Z,100686.00
2018-12-13T16:26:25.820Z,100666.00
2018-12-13T16:28:54.108Z,100672.00
2018-12-13T16:31:22.247Z,100666.00
2018-12-13T16:33:50.385Z,100679.00
2018-12-13T16:36:18.669Z,100676.00
2018-12-13T16:38:47.851Z,100675.00
2018-12-13T16:41:15.952Z,100681.00
2018-12-13T16:43:44.046Z,100683.00
2018-12-13T16:46:12.250Z,100682.00
2018-12-13T16:48:40.370Z,100676.00
2018-12-13T16:51:08.680Z,100673.00
2018-12-13T16:53:36.715Z,100671.00
2018-12-13T16:56:04.882Z,100680.00
2018-12-13T16:58:32.973Z,100668.00
2018-12-13T17:01:01.204Z,100674.00
2018-12-13T17:03:39.645Z,100674.00
2018-12-13T17:06:08.067Z,100679.00
2018-12-13T17:08:36.294Z,100667.00
2018-12-13T17:11:04.856Z,100675.00
2018-12-13T17:13:32.985Z,100665.00
2018-12-13T17:16:01.178Z,100672.00
2018-12-13T17:18:29.369Z,100663.00
2018-12-13T17:20:57.602Z,100668.00
2018-12-13T17:23:25.721Z,100667.00
2018-12-13T17:25:53.910Z,100666.00
2018-12-13T17:28:28.761Z,100668.00
2018-12-13T17:30:56.940Z,100671.00
2018-12-13T17:33:25.097Z,100670.00
2018-12-13T17:35:53.302Z,100664.00
2018-12-13T17:38:22.619Z,100669.00
2018-12-13T17:40:51.058Z,100664.00
2018-12-13T17:43:19.235Z,100663.00
2018-12-13T17:45:47.640Z,100679.00
2018-12-13T17:48:15.827Z,100671.00
2018-12-13T17:50:44.046Z,100667.00
2018-12-13T17:53:12.219Z,100664.00
2018-12-13T17:55:40.542Z,100674.00
2018-12-13T17:58:08.814Z,100674.00
2018-12-13T18:00:36.946Z,100692.00
2018-12-13T18:03:05.359Z,100681.00
2018-12-13T18:05:33.590Z,100673.00
2018-12-13T18:08:01.741Z,100676.00
2018-12-13T18:10:31.142Z,100687.00
2018-12-13T18:12:59.500Z,100681.00
2018-12-13T18:15:27.708Z,100679.00
2018-12-13T18:17:56.012Z,100676.00
2018-12-13T18:20:24.156Z,100681.00
2018-12-13T18:22:52.289Z,100683.00
2018-12-13T18:25:22.102Z,100677.00
2018-12-13T18:27:50.240Z,100683.00
2018-12-13T18:30:18.661Z,100674.00
2018-12-13T18:32:47.106Z,100675.00
2018-12-13T18:35:15.399Z,100683.00
2018-12-13T18:37:43.599Z,100682.00
2018-12-13T18:40:11.909Z,100690.00
2018-12-13T18:42:40.215Z,100690.00
2018-12-13T18:45:08.720Z,100692.00
2018-12-13T18:47:37.002Z,100689.00
2018-12-13T18:50:06.684Z,100695.00
2018-12-13T18:52:36.440Z,100690.00
2018-12-13T18:55:04.955Z,100690.00
2018-12-13T18:57:33.246Z,100687.00
2018-12-13T19:00:01.632Z,100683.00
2018-12-13T19:02:29.903Z,100690.00
2018-12-13T19:04:58.264Z,100693.00
2018-12-13T19:07:26.538Z,100699.00
2018-12-13T19:09:54.795Z,100696.00
2018-12-13T19:12:23.028Z,100693.00
2018-12-13T19:14:51.383Z,100702.00
2018-12-13T19:17:19.623Z,100705.00
2018-12-13T19:19:47.900Z,100705.00
2018-12-13T19:22:16.066Z,100715.00
2018-12-13T19:24:44.374Z,100712.00
2018-12-13T19:27:12.664Z,100715.00
2018-12-13T19:29:40.976Z,100709.00
2018-12-13T19:32:09.331Z,100706.00
2018-12-13T19:34:37.453Z,100706.00
2018-12-13T19:37:05.703Z,100707.00
2018-12-13T19:39:34.107Z,100701.00
2018-12-13T19:42:02.475Z,100696.00
2018-12-13T19:44:30.713Z,100697.00
2018-12-13T19:46:59.028Z,100705.00
2018-12-13T19:49:27.419Z,100698.00
2018-12-13T19:51:55.640Z,100699.00
2018-12-13T19:54:23.946Z,100698.00
2018-12-13T19:56:52.328Z,100706.00
2018-12-13T19:59:20.676Z,100705.00
2018-12-13T20:01:48.874Z,100704.00
2018-12-13T20:04:17.197Z,100706.00
2018-12-13T20:06:45.432Z,100721.00
2018-12-13T20:09:13.674Z,100713.00
2018-12-13T20:11:41.973Z,100711.00
2018-12-13T20:14:10.276Z,100716.00
2018-12-13T20:16:38.653Z,100710.00
2018-12-13T20:19:06.953Z,100716.00
2018-12-13T20:21:35.123Z,100721.00
2018-12-13T20:24:03.515Z,100715.00
2018-12-13T20:26:31.997Z,100719.00
2018-12-13T20:29:00.299Z,100728.00
2018-12-13T20:31:28.508Z,100726.00
2018-12-13T20:33:56.689Z,100734.00
2018-12-13T20:36:24.978Z,100738.00
2018-12-13T20:38:53.349Z,100736.00
2018-12-13T20:41:21.664Z,100710.00
2018-12-13T20:43:49.965Z,100733.00
2018-12-13T20:46:18.465Z,100734.00
2018-12-13T20:48:46.864Z,100730.00
2018-12-13T20:51:15.146Z,100726.00
2018-12-13T20:53:43.574Z,100733.00
2018-12-13T20:56:11.761Z,100741.00
2018-12-13T20:58:40.051Z,100739.00
2018-12-13T21:01:08.381Z,100743.00
2018-12-13T21:03:36.726Z,100752.00
2018-12-13T21:06:04.931Z,100760.00
2018-12-13T21:08:33.236Z,100754.00
2018-12-13T21:11:07.214Z,100748.00
2018-12-13T21:13:31.998Z,100755.00
2018-12-13T21:16:00.250Z,100752.00
2018-12-13T21:18:28.513Z,100757.00
2018-12-13T21:20:56.795Z,100755.00
2018-12-13T21:23:25.103Z,100757.00
2018-12-13T21:25:53.408Z,100760.00
2018-12-13T21:28:21.870Z,100759.00
2018-12-13T21:30:50.189Z,100766.00
2018-12-13T21:33:18.808Z,100754.00
2018-12-13T21:35:47.031Z,100754.00
2018-12-13T21:38:15.322Z,100749.00
2018-12-13T21:40:43.678Z,100758.00
2018-12-13T21:43:11.964Z,100751.00
2018-12-13T21:45:40.278Z,100751.00
2018-12-13T21:48:08.488Z,100740.00
2018-12-13T21:50:36.989Z,100753.00
2018-12-13T21:53:05.378Z,100755.00
2018-12-13T21:55:33.638Z,100755.00
2018-12-13T21:58:01.844Z,100748.00
2018-12-13T22:00:30.066Z,100746.00
2018-12-13T22:02:58.327Z,100748.00
2018-12-13T22:05:26.665Z,100745.00
2018-12-13T22:07:54.939Z,100737.00
2018-12-13T22:10:23.176Z,100732.00
2018-12-13T22:12:51.393Z,100738.00
2018-12-13T22:15:19.731Z,100737.00
2018-12-13T22:17:47.890Z,100740.00
2018-12-13T22:20:16.011Z,100746.00
2018-12-13T22:22:44.293Z,100743.00
2018-12-13T22:25:12.533Z,100745.00
2018-12-13T22:27:40.711Z,100751.00
2018-12-13T22:30:08.971Z,100756.00
2018-12-13T22:32:37.069Z,100746.00
2018-12-13T22:35:05.231Z,100750.00
2018-12-13T22:37:33.414Z,100754.00
2018-12-13T22:40:02.509Z,100759.00
2018-12-13T22:42:30.687Z,100762.00
2018-12-13T22:44:58.916Z,100760.00
2018-12-13T22:47:27.283Z,100763.00
2018-12-13T22:49:55.580Z,100758.00
2018-12-13T22:52:23.892Z,100765.00
2018-12-13T22:54:52.667Z,100758.00
2018-12-13T22:57:20.979Z,100759.00
2018-12-13T22:59:49.078Z,100777.00
2018-12-13T23:02:17.301Z,100763.00
2018-12-13T23:04:45.629Z,100767.00
2018-12-13T23:07:13.674Z,100775.00
2018-12-13T23:09:41.982Z,100769.00
2018-12-13T23:12:10.097Z,100765.00
2018-12-13T23:14:38.557Z,100764.00
2018-12-13T23:17:07.169Z,100768.00
2018-12-13T23:19:35.252Z,100765.00
2018-12-13T23:22:03.504Z,100762.00
2018-12-13T23:24:31.517Z,100754.00
2018-12-13T23:26:59.799Z,100756.00
2018-12-13T23:29:27.918Z,100753.00
2018-12-13T23:31:56.087Z,100661.00
2018-12-13T23:34:24.132Z,100749.00
2018-12-13T23:36:53.073Z,100758.00
2018-12-13T23:39:21.763Z,100760.00
2018-12-13T23:41:50.014Z,100757.00
2018-12-13T23:44:18.614Z,100762.00
2018-12-13T23:46:46.784Z,100759.00
2018-12-13T23:49:14.827Z,100760.00
2018-12-13T23:51:42.861Z,100763.00
2018-12-13T23:54:10.886Z,100764.00
2018-12-13T23:56:38.983Z,100772.00
2018-12-13T23:59:07.312Z,100764.00
